TimeHST,TemperatureF,Dew PointF,Humidity,Sea Level PressureIn,VisibilityMPH,Wind Direction,Wind SpeedMPH,Gust SpeedMPH,PrecipitationIn,Events,Conditions,WindDirDegrees,DateUTC
12:53 AM,66.9,61.0,81,30.06,10.0,SSW,3.5,-,N/A,,Mostly Cloudy,210,2013-03-22 10:53:00
1:53 AM,66.9,61.0,81,30.05,10.0,SW,3.5,-,N/A,,Scattered Clouds,220,2013-03-22 11:53:00
2:53 AM,66.0,61.0,84,30.03,10.0,Calm,Calm,-,N/A,,Mostly Cloudy,0,2013-03-22 12:53:00
3:53 AM,64.9,57.9,78,30.02,10.0,SW,5.8,-,N/A,,Mostly Cloudy,220,2013-03-22 13:53:00
4:53 AM,64.0,57.0,78,30.01,10.0,SW,4.6,-,N/A,,Mostly Cloudy,230,2013-03-22 14:53:00
5:53 AM,64.0,57.0,78,30.01,10.0,SSW,5.8,-,N/A,,Mostly Cloudy,200,2013-03-22 15:53:00
6:53 AM,64.9,55.0,70,30.02,10.0,SSW,3.5,-,N/A,,Mostly Cloudy,210,2013-03-22 16:53:00
7:53 AM,72.0,60.1,66,30.05,10.0,Calm,Calm,-,N/A,,Mostly Cloudy,0,2013-03-22 17:53:00
8:53 AM,75.9,64.0,67,30.06,10.0,SE,8.1,-,N/A,,Mostly Cloudy,130,2013-03-22 18:53:00
9:53 AM,78.1,64.9,64,30.05,10.0,ESE,10.4,-,N/A,,Mostly Cloudy,120,2013-03-22 19:53:00
10:53 AM,80.1,66.0,62,30.03,10.0,ESE,15.0,-,N/A,,Overcast,120,2013-03-22 20:53:00
11:53 AM,81.0,66.0,60,30.01,10.0,ESE,17.3,-,N/A,,Overcast,110,2013-03-22 21:53:00
12:48 PM,80.6,64.4,58,29.98,10.0,SE,15.0,23.0,N/A,,Overcast,130,2013-03-22 22:48:00
12:53 PM,80.1,64.9,60,29.98,10.0,SE,15.0,23.0,N/A,,Overcast,130,2013-03-22 22:53:00
1:53 PM,80.1,64.0,58,29.95,10.0,ESE,13.8,-,N/A,,Overcast,110,2013-03-22 23:53:00
2:53 PM,78.1,63.0,60,29.93,10.0,ESE,12.7,-,N/A,,Overcast,120,2013-03-23 00:53:00
3:53 PM,75.9,64.9,69,29.93,10.0,East,11.5,-,N/A,,Mostly Cloudy,100,2013-03-23 01:53:00
4:53 PM,75.9,66.0,71,29.94,10.0,ESE,10.4,-,N/A,,Mostly Cloudy,110,2013-03-23 02:53:00
5:53 PM,75.9,63.0,64,29.96,10.0,SSE,4.6,-,N/A,,Overcast,160,2013-03-23 03:53:00
6:53 PM,73.9,64.0,71,29.98,10.0,Calm,Calm,-,N/A,,Mostly Cloudy,0,2013-03-23 04:53:00
7:53 PM,73.0,64.0,73,29.99,10.0,Calm,Calm,-,N/A,,Overcast,0,2013-03-23 05:53:00
8:53 PM,72.0,64.0,76,30.00,10.0,Calm,Calm,-,N/A,,Overcast,0,2013-03-23 06:53:00
9:53 PM,71.1,64.9,81,30.01,10.0,SE,3.5,-,N/A,,Overcast,140,2013-03-23 07:53:00
10:53 PM,71.1,64.0,78,30.01,10.0,South,4.6,-,N/A,,Overcast,190,2013-03-23 08:53:00
11:53 PM,70.0,64.0,81,29.99,10.0,SW,3.5,-,N/A,,Overcast,230,2013-03-23 09:53:00